Slnc Moku Pahu — WBWK — position and weather

sailwx.info

Track history (hours):
 
Tides and Currents Weather Stations Pressure Air Temp Water Temp Dewpoint Dewpoint Depression Visibility Wind Speed Wind Dir Waves Ship Positions

Slnc Moku Pahu

Owner: American Ship Management, LLC., Concord, CA. More information available from US FCC via Universal Licensing System and Coast Guard Vessel Documentation Center.

Last reported at 2018-Feb-19 17:07 UTC. Time now 2018-Feb-19 22:19 UTC.
Position N 29°24' W 093°38'.

Type: Cargo ship. MMSI: 366857000.

Date/timePositionNaut miles runAvg speedWind from/ knotsBaromVisibWave heightAir tempDewpointWater temp
2018-Feb-19 17:07N 29°24' W 093°38'0 0.0
2018-Feb-19 16:52N 29°24' W 093°38'0 0.0
2018-Feb-19 16:13N 29°24' W 093°38'0 0.0
2018-Feb-19 15:58N 29°24' W 093°38'0 0.0
2018-Feb-19 15:25N 29°24' W 093°38'0 0.0
2018-Feb-19 13:46N 29°24' W 093°38'0 0.0
2018-Feb-19 13:01N 29°24' W 093°38'0 0.0
2018-Feb-19 12:52N 29°24' W 093°38'0 0.0
2018-Feb-19 12:25N 29°24' W 093°38'0 0.0
2018-Feb-19 11:07N 29°24' W 093°38'0 0.0
2018-Feb-19 10:58N 29°24' W 093°38'0 0.0
2018-Feb-19 09:52N 29°24' W 093°38'0 0.0
2018-Feb-19 07:25N 29°24' W 093°38'0 0.0
2018-Feb-19 06:52N 29°24' W 093°38'0 0.0
2018-Feb-19 06:19N 29°24' W 093°38'0 0.0
2018-Feb-19 05:25N 29°24' W 093°38'0 0.0
2018-Feb-19 04:43N 29°24' W 093°38'0 0.0
2018-Feb-19 00:31N 29°24' W 093°38'0 0.0
2018-Feb-19 00:28N 29°24' W 093°38'0 0.0
2018-Feb-18 09:58N 29°24' W 093°38'0 0.0
2018-Feb-18 09:28N 29°24' W 093°38'0 0.0
2018-Feb-18 08:58N 29°24' W 093°38'0 0.0
2018-Feb-18 08:19N 29°24' W 093°38'0 0.0
2018-Feb-18 03:19N 29°24' W 093°38'0 0.0
2018-Feb-18 02:37N 29°24' W 093°38'0 0.0
2018-Feb-18 01:43N 29°24' W 093°38'0 0.0
2018-Feb-18 01:13N 29°24' W 093°38'0 0.0
2018-Feb-18 00:58N 29°24' W 093°38'0 0.1
2018-Feb-18 00:28N 29°24' W 093°38'0 0.0
2018-Feb-17 23:19N 29°24' W 093°38'0 0.0
2018-Feb-17 01:58N 29°24' W 093°38'0 0.0
2018-Feb-17 00:55N 29°24' W 093°38'0 0.0
2018-Feb-17 00:22N 29°24' W 093°38'0 0.0
2018-Feb-16 23:58N 29°24' W 093°38'0 0.0
2018-Feb-16 23:22N 29°24' W 093°38'0 0.0
2018-Feb-16 22:55N 29°24' W 093°38'0 0.0
2018-Feb-16 22:28N 29°24' W 093°38'0 0.0
2018-Feb-16 21:46N 29°24' W 093°38'0 0.0
2018-Feb-16 21:28N 29°24' W 093°38'0 0.0
2018-Feb-16 20:55N 29°24' W 093°38'0 0.0
2018-Feb-16 20:28N 29°24' W 093°38'0 0.0
2018-Feb-16 18:10N 29°24' W 093°38'0 0.0
2018-Feb-16 03:00N 29°24' W 093°38'0 0.0
2018-Feb-16 02:07N 29°24' W 093°38'0 0.0
2018-Feb-16 01:54N 29°24' W 093°38'0 0.0
2018-Feb-16 01:24N 29°24' W 093°38'0 0.0
2018-Feb-16 01:00N 29°24' W 093°38'0 0.0
2018-Feb-16 00:21N 29°24' W 093°38'0 0.0
2018-Feb-15 22:12N 29°24' W 093°38'0 0.0
2018-Feb-15 21:39N 29°24' W 093°38'0 0.0
2018-Feb-15 21:24N 29°24' W 093°38'0 0.0
2018-Feb-15 21:00N 29°24' W 093°38'0 0.0
2018-Feb-15 20:24N 29°24' W 093°38'0 0.0
2018-Feb-15 18:42N 29°24' W 093°38'2 0.5
2018-Feb-15 14:43N 29°23' W 093°39'1 5.4
2018-Feb-15 14:30N 29°22' W 093°39'  
2018-Feb-10 20:37N 09°34' W 079°56'111.3
2018-Feb-10 20:30N 09°33' W 079°56'510.8
2018-Feb-10 20:00N 09°27' W 079°55'5 9.5
2018-Feb-10 19:30N 09°23' W 079°55'3 6.8
2018-Feb-10 19:00N 09°19' W 079°55'3 5.3
2018-Feb-10 18:30N 09°17' W 079°55'0 0.3
2018-Feb-10 18:00N 09°16' W 079°55'0 0.5
2018-Feb-10 17:30N 09°16' W 079°55'0 0.9
2018-Feb-10 16:57N 09°16' W 079°55'2 3.4
2018-Feb-10 16:29N 09°14' W 079°55'2 4.3
2018-Feb-10 16:00N 09°12' W 079°55'2 4.9
2018-Feb-10 15:30N 09°11' W 079°52'  
Track history (hours):
 
Tides and Currents Weather Stations Pressure Air Temp Water Temp Dewpoint Dewpoint Depression Visibility Wind Speed Wind Dir Waves Ship Positions

Slnc Moku Pahu

Owner: American Ship Management, LLC., Concord, CA. More information available from US FCC via Universal Licensing System and Coast Guard Vessel Documentation Center.

Last reported at 2018-Feb-19 17:07 UTC. Time now 2018-Feb-19 22:19 UTC.
Position N 29°24' W 093°38'.

Type: Cargo ship. MMSI: 366857000.

Date/timePositionNaut miles runAvg speedWind from/ knotsBaromVisibWave heightAir tempDewpointWater temp
2018-Feb-19 17:07N 29°24' W 093°38'0 0.0
2018-Feb-19 16:52N 29°24' W 093°38'0 0.0
2018-Feb-19 16:13N 29°24' W 093°38'0 0.0
2018-Feb-19 15:58N 29°24' W 093°38'0 0.0
2018-Feb-19 15:25N 29°24' W 093°38'0 0.0
2018-Feb-19 13:46N 29°24' W 093°38'0 0.0
2018-Feb-19 13:01N 29°24' W 093°38'0 0.0
2018-Feb-19 12:52N 29°24' W 093°38'0 0.0
2018-Feb-19 12:25N 29°24' W 093°38'0 0.0
2018-Feb-19 11:07N 29°24' W 093°38'0 0.0
2018-Feb-19 10:58N 29°24' W 093°38'0 0.0
2018-Feb-19 09:52N 29°24' W 093°38'0 0.0
2018-Feb-19 07:25N 29°24' W 093°38'0 0.0
2018-Feb-19 06:52N 29°24' W 093°38'0 0.0
2018-Feb-19 06:19N 29°24' W 093°38'0 0.0
2018-Feb-19 05:25N 29°24' W 093°38'0 0.0
2018-Feb-19 04:43N 29°24' W 093°38'0 0.0
2018-Feb-19 00:31N 29°24' W 093°38'0 0.0
2018-Feb-19 00:28N 29°24' W 093°38'0 0.0
2018-Feb-18 09:58N 29°24' W 093°38'0 0.0
2018-Feb-18 09:28N 29°24' W 093°38'0 0.0
2018-Feb-18 08:58N 29°24' W 093°38'0 0.0
2018-Feb-18 08:19N 29°24' W 093°38'0 0.0
2018-Feb-18 03:19N 29°24' W 093°38'0 0.0
2018-Feb-18 02:37N 29°24' W 093°38'0 0.0
2018-Feb-18 01:43N 29°24' W 093°38'0 0.0
2018-Feb-18 01:13N 29°24' W 093°38'0 0.0
2018-Feb-18 00:58N 29°24' W 093°38'0 0.1
2018-Feb-18 00:28N 29°24' W 093°38'0 0.0
2018-Feb-17 23:19N 29°24' W 093°38'0 0.0
2018-Feb-17 01:58N 29°24' W 093°38'0 0.0
2018-Feb-17 00:55N 29°24' W 093°38'0 0.0
2018-Feb-17 00:22N 29°24' W 093°38'0 0.0
2018-Feb-16 23:58N 29°24' W 093°38'0 0.0
2018-Feb-16 23:22N 29°24' W 093°38'0 0.0
2018-Feb-16 22:55N 29°24' W 093°38'0 0.0
2018-Feb-16 22:28N 29°24' W 093°38'0 0.0
2018-Feb-16 21:46N 29°24' W 093°38'0 0.0
2018-Feb-16 21:28N 29°24' W 093°38'0 0.0
2018-Feb-16 20:55N 29°24' W 093°38'0 0.0
2018-Feb-16 20:28N 29°24' W 093°38'0 0.0
2018-Feb-16 18:10N 29°24' W 093°38'0 0.0
2018-Feb-16 03:00N 29°24' W 093°38'0 0.0
2018-Feb-16 02:07N 29°24' W 093°38'0 0.0
2018-Feb-16 01:54N 29°24' W 093°38'0 0.0
2018-Feb-16 01:24N 29°24' W 093°38'0 0.0
2018-Feb-16 01:00N 29°24' W 093°38'0 0.0
2018-Feb-16 00:21N 29°24' W 093°38'0 0.0
2018-Feb-15 22:12N 29°24' W 093°38'0 0.0
2018-Feb-15 21:39N 29°24' W 093°38'0 0.0
2018-Feb-15 21:24N 29°24' W 093°38'0 0.0
2018-Feb-15 21:00N 29°24' W 093°38'0 0.0
2018-Feb-15 20:24N 29°24' W 093°38'0 0.0
2018-Feb-15 18:42N 29°24' W 093°38'2 0.5
2018-Feb-15 14:43N 29°23' W 093°39'1 5.4
2018-Feb-15 14:30N 29°22' W 093°39'  
2018-Feb-10 20:37N 09°34' W 079°56'111.3
2018-Feb-10 20:30N 09°33' W 079°56'510.8
2018-Feb-10 20:00N 09°27' W 079°55'5 9.5
2018-Feb-10 19:30N 09°23' W 079°55'3 6.8
2018-Feb-10 19:00N 09°19' W 079°55'3 5.3
2018-Feb-10 18:30N 09°17' W 079°55'0 0.3
2018-Feb-10 18:00N 09°16' W 079°55'0 0.5
2018-Feb-10 17:30N 09°16' W 079°55'0 0.9
2018-Feb-10 16:57N 09°16' W 079°55'2 3.4
2018-Feb-10 16:29N 09°14' W 079°55'2 4.3
2018-Feb-10 16:00N 09°12' W 079°55'2 4.9
2018-Feb-10 15:30N 09°11' W 079°52'  

Dump ship's entire track history